Time;durP1;ratioP1;P1;durP2;ratioP2;P2;SDS_P1;SDS_P2;PMS_P1;PMS_P2;Temp;Humidity;BMP_temperature;BMP_pressure;BME280_temperature;BME280_humidity;BME280_pressure;Samples;Min_cycle;Max_cycle;Signal;HPM_P1;HPM_P2
2022/01/21 00:01:50;;;;;;;1.20;0.90;;;-1.10;99.90;;;;;;5051369;28;20176;-87
2022/01/21 00:04:16;;;;;;;1.77;0.83;;;-1.20;99.90;;;;;;5046720;28;20174;-87
2022/01/21 00:06:42;;;;;;;6.20;1.70;;;-1.20;99.90;;;;;;5067856;28;20242;-87
2022/01/21 00:09:08;;;;;;;1.43;0.87;;;-1.20;99.90;;;;;;5041477;28;20179;-87
2022/01/21 00:11:36;;;;;;;3.90;1.17;;;-1.30;99.90;;;;;;5056473;28;20215;-87
2022/01/21 00:14:01;;;;;;;2.53;1.13;;;-1.30;99.90;;;;;;5070738;28;20457;-87
2022/01/21 00:16:28;;;;;;;2.33;1.17;;;-1.30;99.90;;;;;;5072943;28;20453;-87
2022/01/21 00:19:04;;;;;;;3.77;2.40;;;-1.40;99.90;;;;;;5069791;28;20692;-87
2022/01/21 00:32:34;;;;;;;8.93;1.80;;;-1.50;99.90;;;;;;5071031;28;20457;-88
2022/01/21 00:34:59;;;;;;;1.23;0.60;;;-1.60;99.90;;;;;;5064268;28;20416;-88
2022/01/21 00:37:25;;;;;;;3.53;1.60;;;-1.60;99.90;;;;;;5038482;28;20591;-87
2022/01/21 00:39:55;;;;;;;3.40;1.63;;;-1.60;99.90;;;;;;5065537;28;20233;-86
2022/01/21 00:44:47;;;;;;;2.13;0.53;;;-1.60;99.90;;;;;;5064556;28;20418;-89
2022/01/21 00:47:12;;;;;;;6.10;1.33;;;-1.60;99.90;;;;;;5052186;28;20432;-89
2022/01/21 00:49:38;;;;;;;4.73;1.63;;;-1.50;99.90;;;;;;5035525;28;20464;-88
2022/01/21 00:52:04;;;;;;;2.10;1.53;;;-1.50;99.90;;;;;;5035068;28;20238;-88
2022/01/21 00:54:29;;;;;;;6.13;0.90;;;-1.50;99.90;;;;;;5038934;28;20176;-87
2022/01/21 00:56:55;;;;;;;3.53;1.53;;;-1.60;99.90;;;;;;5037196;28;20480;-89
2022/01/21 00:59:20;;;;;;;13.30;1.47;;;-1.60;99.90;;;;;;5035662;28;20187;-89
2022/01/21 01:01:46;;;;;;;1.13;1.03;;;-1.60;99.90;;;;;;5035729;28;20629;-89
2022/01/21 01:04:11;;;;;;;2.73;0.90;;;-1.60;99.90;;;;;;5035522;28;20177;-88
2022/01/21 01:06:37;;;;;;;8.60;1.60;;;-1.60;99.90;;;;;;5036030;28;20174;-93
2022/01/21 01:09:03;;;;;;;4.73;0.97;;;-1.60;99.90;;;;;;5035845;28;20754;-90
2022/01/21 01:11:47;;;;;;;7.90;1.23;;;-1.60;99.90;;;;;;5035726;28;20256;-90
2022/01/21 01:19:57;;;;;;;3.60;0.87;;;-1.70;99.90;;;;;;5053741;28;20455;-90
2022/01/21 01:22:44;;;;;;;3.63;1.60;;;-1.80;99.90;;;;;;5035550;28;20418;-89
2022/01/21 01:27:55;;;;;;;2.47;1.40;;;-1.80;99.90;;;;;;5053867;28;20398;-89
2022/01/21 01:30:23;;;;;;;2.53;1.33;;;-1.80;99.90;;;;;;5035827;28;20452;-91
2022/01/21 01:32:50;;;;;;;12.13;1.57;;;-1.70;99.90;;;;;;5035927;28;20180;-88
2022/01/21 01:35:19;;;;;;;5.20;1.50;;;-1.80;99.90;;;;;;5035919;28;20831;-88
2022/01/21 01:38:09;;;;;;;2.83;1.10;;;-1.80;99.90;;;;;;5035437;28;20431;-88
2022/01/21 01:49:23;;;;;;;3.43;1.10;;;-1.80;99.90;;;;;;5053569;28;20436;-88
2022/01/21 01:51:18;;;;;;;4.63;1.33;;;-1.90;99.90;;;;;;5057122;28;20468;-89
2022/01/21 01:53:57;;;;;;;0.93;0.73;;;-1.90;99.90;;;;;;5038779;28;20476;-89
2022/01/21 01:56:33;;;;;;;2.23;1.30;;;-1.80;99.90;;;;;;5039011;28;20457;-89
2022/01/21 01:59:01;;;;;;;5.30;1.53;;;-1.80;99.90;;;;;;5039404;28;20824;-89
2022/01/21 02:01:27;;;;;;;4.03;1.10;;;-1.90;99.90;;;;;;5039163;28;20851;-88
2022/01/21 02:03:53;;;;;;;4.17;0.80;;;-1.80;99.90;;;;;;5019737;28;20427;-90
2022/01/21 02:06:19;;;;;;;3.53;1.23;;;-1.80;99.90;;;;;;5016136;28;20177;-89
2022/01/21 02:08:44;;;;;;;3.50;0.97;;;-1.80;99.90;;;;;;5014664;28;20184;-86
2022/01/21 02:11:10;;;;;;;2.80;0.30;;;-1.60;99.90;;;;;;5016046;28;20466;-88
2022/01/21 02:13:43;;;;;;;2.50;0.87;;;-1.50;99.90;;;;;;5015600;28;20174;-88
2022/01/21 02:16:31;;;;;;;2.13;0.70;;;-1.50;99.90;;;;;;5016891;28;20177;-88
2022/01/21 02:21:46;;;;;;;9.43;1.33;;;-1.50;99.90;;;;;;5037055;28;21013;-89
2022/01/21 02:24:17;;;;;;;0.73;0.40;;;-1.50;99.90;;;;;;5035421;28;20426;-87
2022/01/21 02:26:44;;;;;;;2.27;1.27;;;-1.50;99.90;;;;;;5034841;28;20819;-88
2022/01/21 02:29:11;;;;;;;3.10;1.20;;;-1.60;99.90;;;;;;5038181;28;20797;-89
2022/01/21 02:31:39;;;;;;;4.80;1.30;;;-1.70;99.90;;;;;;5038401;28;20479;-87
2022/01/21 02:34:06;;;;;;;2.60;1.20;;;-1.70;99.90;;;;;;5056323;28;20411;-90
2022/01/21 02:36:32;;;;;;;1.33;0.70;;;-1.60;99.90;;;;;;5055101;28;20460;-90
2022/01/21 02:38:58;;;;;;;12.70;2.40;;;-1.70;99.90;;;;;;5055230;28;20863;-88
2022/01/21 02:41:23;;;;;;;3.27;1.00;;;-1.70;99.90;;;;;;5054792;28;20212;-87
2022/01/21 02:43:50;;;;;;;5.03;0.90;;;-1.70;99.90;;;;;;5054697;28;20172;-86
2022/01/21 02:46:17;;;;;;;5.77;1.13;;;-1.70;99.90;;;;;;5054365;28;20183;-88
2022/01/21 02:48:43;;;;;;;7.63;1.30;;;-1.60;99.90;;;;;;5054357;28;20437;-87
2022/01/21 02:51:12;;;;;;;4.70;1.47;;;-1.50;99.90;;;;;;5054341;28;20471;-88
2022/01/21 02:56:11;;;;;;;3.90;2.23;;;-1.30;99.90;;;;;;5056655;28;20456;-90
2022/01/21 02:58:38;;;;;;;2.53;1.07;;;-1.30;99.90;;;;;;5054632;28;20452;-88
2022/01/21 03:01:05;;;;;;;6.47;1.00;;;-1.30;99.90;;;;;;5055632;28;20460;-85
2022/01/21 03:03:31;;;;;;;2.30;0.80;;;-1.30;99.90;;;;;;5054110;28;20462;-86
2022/01/21 03:05:56;;;;;;;4.10;2.30;;;-1.30;99.90;;;;;;5055686;28;20446;-88
2022/01/21 03:08:22;;;;;;;5.50;1.43;;;-1.30;99.90;;;;;;5054256;28;20622;-87
2022/01/21 03:10:48;;;;;;;6.00;2.00;;;-1.20;99.90;;;;;;5054297;28;20226;-87
2022/01/21 03:13:14;;;;;;;2.63;1.30;;;-1.30;99.90;;;;;;5055457;28;20167;-90
2022/01/21 03:15:40;;;;;;;3.17;1.53;;;-1.30;99.90;;;;;;5054678;28;20220;-90
2022/01/21 03:18:05;;;;;;;4.70;1.83;;;-1.30;99.90;;;;;;5054152;28;20410;-88
2022/01/21 03:20:31;;;;;;;6.87;1.20;;;-1.40;99.90;;;;;;5054152;28;20261;-88
2022/01/21 03:22:59;;;;;;;2.63;1.20;;;-1.40;99.90;;;;;;5054333;28;20185;-88
2022/01/21 03:25:24;;;;;;;7.90;1.17;;;-1.40;99.90;;;;;;5055404;28;20674;-89
2022/01/21 03:27:50;;;;;;;3.60;1.00;;;-1.40;99.90;;;;;;5053912;28;20422;-87
2022/01/21 03:30:15;;;;;;;13.00;2.10;;;-1.20;99.90;;;;;;5054219;28;20200;-87
2022/01/21 03:32:41;;;;;;;4.00;0.80;;;-1.30;99.90;;;;;;5053673;28;20551;-89
2022/01/21 03:35:07;;;;;;;4.67;0.97;;;-1.30;99.90;;;;;;5053669;28;20175;-87
2022/01/21 03:37:36;;;;;;;3.03;1.60;;;-1.20;99.90;;;;;;5053480;28;20526;-86
2022/01/21 03:40:03;;;;;;;3.20;1.30;;;-1.10;99.90;;;;;;5053899;28;20831;-88
2022/01/21 03:42:28;;;;;;;5.67;1.20;;;-0.90;99.90;;;;;;5053972;28;20434;-89
2022/01/21 03:44:54;;;;;;;8.93;1.60;;;-0.80;99.90;;;;;;5055029;28;20414;-90
2022/01/21 03:47:22;;;;;;;2.77;1.23;;;-0.80;99.90;;;;;;5054025;28;20187;-88
2022/01/21 03:49:57;;;;;;;5.67;1.63;;;-0.70;99.90;;;;;;5053834;28;20176;-90
2022/01/21 03:52:23;;;;;;;6.77;1.83;;;-0.70;99.90;;;;;;5054010;28;20428;-89
2022/01/21 03:54:49;;;;;;;4.40;1.23;;;-0.70;99.90;;;;;;5053879;28;20518;-89
2022/01/21 03:57:15;;;;;;;4.73;1.27;;;-0.70;99.90;;;;;;5053813;28;20715;-88
2022/01/21 03:59:40;;;;;;;10.97;1.80;;;-0.80;99.90;;;;;;5053677;28;20188;-88
2022/01/21 04:02:06;;;;;;;4.33;0.93;;;-0.60;99.90;;;;;;5054863;28;20199;-89
2022/01/21 04:04:33;;;;;;;8.17;1.63;;;-0.70;99.90;;;;;;5053295;28;20267;-88
2022/01/21 04:06:59;;;;;;;7.47;1.10;;;-0.60;99.90;;;;;;5054607;28;20437;-86
2022/01/21 04:09:24;;;;;;;9.00;1.57;;;-0.60;99.90;;;;;;5052522;28;20430;-88
2022/01/21 04:11:51;;;;;;;5.73;1.00;;;-0.40;99.90;;;;;;5053024;28;20221;-88
2022/01/21 04:14:16;;;;;;;1.50;0.90;;;-0.50;99.90;;;;;;5054136;28;20176;-87
2022/01/21 04:16:42;;;;;;;7.53;1.40;;;-0.50;99.90;;;;;;5053440;28;20443;-90
2022/01/21 04:19:07;;;;;;;6.83;1.20;;;-0.40;99.90;;;;;;5054256;28;20219;-89
2022/01/21 04:21:33;;;;;;;7.70;1.23;;;-0.40;99.90;;;;;;5054998;28;20633;-89
2022/01/21 04:23:59;;;;;;;10.33;1.40;;;-0.40;99.90;;;;;;5054818;28;20521;-89
2022/01/21 04:26:25;;;;;;;4.10;1.30;;;-0.40;99.90;;;;;;5054905;28;20511;-88
2022/01/21 04:28:51;;;;;;;4.10;1.30;;;-0.40;99.90;;;;;;5055111;28;20487;-90
2022/01/21 04:31:19;;;;;;;3.77;0.77;;;-0.40;99.90;;;;;;5053948;28;20458;-90
2022/01/21 04:33:44;;;;;;;2.30;1.57;;;-0.30;99.90;;;;;;5054218;28;20171;-89
2022/01/21 04:36:10;;;;;;;8.97;1.90;;;-0.30;99.90;;;;;;5054525;28;20429;-88
2022/01/21 04:38:37;;;;;;;9.03;1.70;;;-0.40;99.90;;;;;;5053861;28;20180;-89
2022/01/21 04:49:14;;;;;;;5.13;1.23;;;-0.40;99.90;;;;;;5054105;28;20862;-87
2022/01/21 04:51:48;;;;;;;3.93;1.77;;;-0.40;99.90;;;;;;5052552;28;20467;-88
2022/01/21 04:54:14;;;;;;;8.40;1.23;;;-0.40;99.90;;;;;;5052094;28;20537;-90
2022/01/21 04:56:40;;;;;;;5.97;1.03;;;-0.30;99.90;;;;;;5052547;28;20436;-90
2022/01/21 04:59:05;;;;;;;3.00;1.43;;;-0.30;99.90;;;;;;5052242;28;20617;-86
2022/01/21 05:01:31;;;;;;;7.57;1.73;;;-0.20;99.90;;;;;;5053598;28;20423;-89
2022/01/21 05:03:56;;;;;;;6.90;2.77;;;-0.30;99.90;;;;;;5052598;28;20682;-88
2022/01/21 05:06:22;;;;;;;5.60;1.17;;;-0.20;99.90;;;;;;5052368;28;20180;-89
2022/01/21 05:08:53;;;;;;;9.33;2.03;;;-0.20;99.90;;;;;;5052067;28;20207;-89
2022/01/21 05:11:20;;;;;;;2.90;1.57;;;-0.10;99.90;;;;;;5053615;28;20208;-89
2022/01/21 05:14:10;;;;;;;6.17;1.80;;;-0.20;99.90;;;;;;5052227;28;20416;-88
2022/01/21 05:16:38;;;;;;;5.83;1.10;;;-0.20;99.90;;;;;;5052536;28;21037;-89
2022/01/21 05:19:13;;;;;;;6.53;1.03;;;-0.20;99.90;;;;;;5053319;28;20501;-88
2022/01/21 05:21:38;;;;;;;5.43;2.43;;;-0.20;99.90;;;;;;5051498;28;20442;-89
2022/01/21 05:24:06;;;;;;;11.97;1.60;;;-0.20;99.90;;;;;;5052001;28;20420;-89
2022/01/21 05:26:37;;;;;;;5.93;1.60;;;-0.10;99.90;;;;;;5052723;28;20165;-87
2022/01/21 05:29:11;;;;;;;11.60;1.73;;;-0.10;99.90;;;;;;5053945;28;20399;-89
2022/01/21 05:31:37;;;;;;;2.37;1.27;;;-0.10;99.90;;;;;;5053631;28;20950;-89
2022/01/21 05:34:03;;;;;;;6.90;1.77;;;0.00;99.90;;;;;;5052576;28;20429;-89
2022/01/21 05:36:31;;;;;;;9.53;1.40;;;0.10;99.90;;;;;;5052367;28;20197;-89
2022/01/21 05:38:58;;;;;;;9.67;1.23;;;0.20;99.90;;;;;;5052033;28;20418;-89
2022/01/21 05:41:25;;;;;;;6.57;1.37;;;0.30;99.90;;;;;;5053687;28;20412;-89
2022/01/21 05:43:59;;;;;;;7.20;1.37;;;0.30;99.90;;;;;;5052444;28;20830;-87
2022/01/21 05:46:48;;;;;;;6.67;1.37;;;0.40;99.90;;;;;;5053557;28;20395;-89
2022/01/21 05:49:16;;;;;;;7.20;1.23;;;0.50;99.90;;;;;;5053774;28;20516;-92
2022/01/21 05:51:43;;;;;;;10.10;1.83;;;0.50;99.90;;;;;;5052525;28;20474;-91
2022/01/21 05:54:12;;;;;;;5.10;1.17;;;0.60;99.90;;;;;;5053598;28;20813;-90
2022/01/21 05:56:39;;;;;;;6.40;1.10;;;0.50;99.90;;;;;;5053887;28;20412;-90
2022/01/21 05:59:05;;;;;;;5.20;1.60;;;0.50;99.90;;;;;;5052788;28;20526;-92
2022/01/21 06:01:34;;;;;;;12.13;1.80;;;0.40;99.90;;;;;;5053858;28;20412;-91
2022/01/21 06:04:03;;;;;;;2.67;1.70;;;0.50;99.90;;;;;;5052539;28;20414;-90
2022/01/21 06:06:30;;;;;;;8.43;1.80;;;0.60;99.90;;;;;;5052592;28;21008;-90
2022/01/21 06:08:56;;;;;;;10.37;1.60;;;0.50;99.90;;;;;;5052625;28;20423;-89
2022/01/21 06:11:21;;;;;;;6.77;1.10;;;0.50;99.90;;;;;;5052803;28;20841;-88
2022/01/21 06:13:49;;;;;;;4.83;1.07;;;0.50;99.90;;;;;;5054714;28;20172;-89
2022/01/21 06:16:16;;;;;;;3.43;0.60;;;0.50;99.90;;;;;;5054365;28;20530;-89
2022/01/21 06:18:42;;;;;;;5.67;1.33;;;0.50;99.90;;;;;;5054341;28;20879;-89
2022/01/21 06:21:08;;;;;;;2.97;1.40;;;0.50;99.90;;;;;;5052932;28;20416;-89
2022/01/21 06:23:33;;;;;;;6.20;1.50;;;0.50;99.90;;;;;;5051213;28;20465;-88
2022/01/21 06:25:59;;;;;;;4.07;0.77;;;0.40;99.90;;;;;;5051753;28;20173;-88
2022/01/21 06:28:25;;;;;;;5.30;0.97;;;0.50;99.90;;;;;;5051835;28;20572;-89
2022/01/21 06:30:51;;;;;;;3.60;2.50;;;0.40;99.90;;;;;;5051559;28;20202;-89
2022/01/21 06:33:22;;;;;;;6.60;0.97;;;0.40;99.90;;;;;;5054873;28;20426;-88
2022/01/21 06:35:51;;;;;;;3.90;0.67;;;0.40;99.90;;;;;;5056655;28;20405;-87
2022/01/21 06:38:19;;;;;;;5.53;1.20;;;0.30;99.90;;;;;;5056177;28;20450;-89
2022/01/21 06:40:45;;;;;;;4.63;0.50;;;0.20;99.90;;;;;;5055348;28;20800;-89
2022/01/21 06:43:10;;;;;;;4.00;1.30;;;0.20;99.90;;;;;;5057064;28;20663;-88
2022/01/21 06:45:37;;;;;;;9.23;0.87;;;0.20;99.90;;;;;;5056118;28;20456;-90
2022/01/21 06:48:03;;;;;;;1.47;0.70;;;0.00;99.90;;;;;;5069912;28;20428;-88
2022/01/21 06:50:34;;;;;;;5.10;0.67;;;0.10;99.90;;;;;;5061621;28;20283;-88
2022/01/21 06:52:59;;;;;;;3.60;1.10;;;0.00;99.90;;;;;;5061337;28;20431;-88
2022/01/21 06:55:25;;;;;;;5.23;0.87;;;0.00;99.90;;;;;;5063117;28;20439;-89
2022/01/21 06:57:51;;;;;;;4.10;0.90;;;0.00;99.90;;;;;;5059513;28;20198;-88
2022/01/21 07:00:19;;;;;;;4.90;1.27;;;-0.10;99.90;;;;;;5055102;28;20260;-89
2022/01/21 07:02:48;;;;;;;4.10;1.43;;;-0.10;99.90;;;;;;5056463;28;20664;-88
2022/01/21 07:05:16;;;;;;;3.73;0.73;;;-0.20;99.90;;;;;;5054797;28;20427;-88
2022/01/21 07:07:45;;;;;;;6.10;0.60;;;-0.10;99.90;;;;;;5055446;28;20431;-88
2022/01/21 07:10:15;;;;;;;6.33;0.90;;;-0.10;99.90;;;;;;5055974;28;20459;-89
2022/01/21 07:12:42;;;;;;;3.40;0.60;;;-0.10;99.90;;;;;;5055703;28;20423;-88
2022/01/21 07:15:10;;;;;;;4.40;1.43;;;-0.10;99.90;;;;;;5054635;28;20417;-89
2022/01/21 07:17:36;;;;;;;5.10;0.70;;;0.00;99.90;;;;;;5054610;28;20427;-88
2022/01/21 07:20:04;;;;;;;4.70;1.37;;;0.00;99.90;;;;;;5055744;28;20474;-88
2022/01/21 07:22:31;;;;;;;2.43;1.10;;;-0.20;99.90;;;;;;5054360;28;20211;-88
2022/01/21 07:24:56;;;;;;;3.13;0.63;;;-0.30;99.90;;;;;;5054483;28;20412;-89
2022/01/21 07:27:22;;;;;;;3.50;1.07;;;-0.20;99.90;;;;;;5054520;28;20427;-89
2022/01/21 07:29:48;;;;;;;4.47;0.93;;;-0.20;99.90;;;;;;5054501;28;20412;-89
2022/01/21 07:32:13;;;;;;;3.07;1.07;;;-0.20;99.90;;;;;;5054412;28;20680;-90
2022/01/21 07:34:38;;;;;;;2.40;1.10;;;-0.20;99.90;;;;;;5056730;28;20224;-89
2022/01/21 07:37:04;;;;;;;3.27;1.03;;;-0.20;99.90;;;;;;5056421;28;20184;-89
2022/01/21 07:39:29;;;;;;;3.43;0.77;;;0.00;99.90;;;;;;5054001;28;20555;-88
2022/01/21 07:41:56;;;;;;;5.57;1.40;;;0.10;99.90;;;;;;5055541;28;20249;-90
2022/01/21 07:44:22;;;;;;;3.73;2.63;;;0.10;99.90;;;;;;5054773;28;20170;-89
2022/01/21 07:46:47;;;;;;;6.70;2.10;;;0.10;99.90;;;;;;5055884;28;20442;-91
2022/01/21 07:49:14;;;;;;;9.23;1.03;;;0.10;99.90;;;;;;5054583;28;20174;-91
2022/01/21 07:51:40;;;;;;;3.33;1.30;;;0.10;99.90;;;;;;5055707;28;20205;-90
2022/01/21 07:54:06;;;;;;;2.97;0.90;;;0.20;99.90;;;;;;5056159;28;20816;-91
2022/01/21 07:56:33;;;;;;;4.17;1.17;;;0.20;99.90;;;;;;5055682;28;20412;-90
2022/01/21 07:58:59;;;;;;;2.87;0.73;;;0.30;99.90;;;;;;5055076;28;20416;-90
2022/01/21 08:01:25;;;;;;;3.93;1.10;;;0.30;99.90;;;;;;5055096;28;20449;-92
2022/01/21 08:03:50;;;;;;;3.17;1.10;;;0.40;99.90;;;;;;5054949;28;20408;-91
2022/01/21 08:06:16;;;;;;;2.20;1.30;;;0.50;99.90;;;;;;5054796;28;20174;-86
2022/01/21 08:08:42;;;;;;;7.37;1.50;;;0.70;99.90;;;;;;5052797;28;20205;-86
2022/01/21 08:11:07;;;;;;;3.60;1.07;;;0.90;99.90;;;;;;5053797;28;20303;-86
2022/01/21 08:13:33;;;;;;;3.33;0.70;;;1.20;99.90;;;;;;5054736;28;20620;-90
2022/01/21 08:15:59;;;;;;;3.50;1.37;;;1.60;99.90;;;;;;5053653;28;20173;-89
2022/01/21 08:18:25;;;;;;;2.20;0.50;;;1.60;99.90;;;;;;5054290;28;20209;-89
2022/01/21 08:20:50;;;;;;;4.00;0.80;;;1.80;99.90;;;;;;5054252;28;20424;-89
2022/01/21 08:23:16;;;;;;;5.40;0.80;;;1.90;99.90;;;;;;5054063;28;20173;-89
2022/01/21 08:25:41;;;;;;;1.80;0.93;;;2.00;99.90;;;;;;5054351;28;20180;-90
2022/01/21 08:28:07;;;;;;;3.20;0.87;;;2.30;99.90;;;;;;5052785;28;20173;-90
2022/01/21 08:30:39;;;;;;;2.87;0.40;;;2.30;99.90;;;;;;5054298;28;20193;-90
2022/01/21 08:33:05;;;;;;;6.30;0.93;;;1.80;99.90;;;;;;5053439;28;20224;-87
2022/01/21 08:35:32;;;;;;;3.33;0.63;;;1.50;99.90;;;;;;5053147;28;20925;-89
2022/01/21 08:37:58;;;;;;;2.00;0.70;;;1.60;99.90;;;;;;5053500;28;20444;-89
2022/01/21 08:40:25;;;;;;;4.40;0.93;;;2.20;99.90;;;;;;5048433;28;20406;-90
2022/01/21 08:42:51;;;;;;;4.57;0.30;;;2.80;99.90;;;;;;5051812;28;20177;-87
2022/01/21 08:45:21;;;;;;;2.57;0.47;;;3.10;99.90;;;;;;5046388;28;20955;-89
2022/01/21 08:47:46;;;;;;;3.20;0.70;;;4.10;99.90;;;;;;5035857;28;20421;-89
2022/01/21 08:50:16;;;;;;;1.73;0.50;;;4.70;99.90;;;;;;5069524;28;20408;-90
2022/01/21 08:52:42;;;;;;;5.37;1.00;;;5.10;99.40;;;;;;5045172;28;20267;-88
2022/01/21 08:55:11;;;;;;;4.53;0.60;;;6.00;97.00;;;;;;5034147;28;20415;-89
2022/01/21 08:57:39;;;;;;;3.13;0.80;;;5.10;96.70;;;;;;5052527;28;20502;-90
2022/01/21 09:00:08;;;;;;;3.27;0.30;;;4.80;98.20;;;;;;5052253;28;20438;-90
2022/01/21 09:02:43;;;;;;;2.50;0.63;;;5.40;97.10;;;;;;5052135;28;20432;-90
2022/01/21 09:05:09;;;;;;;2.53;0.73;;;6.40;94.80;;;;;;5053438;28;20851;-92
2022/01/21 09:07:35;;;;;;;1.20;0.60;;;7.10;92.30;;;;;;5053321;28;20957;-90
2022/01/21 09:10:02;;;;;;;2.10;0.50;;;7.70;90.50;;;;;;5053346;28;20416;-89
2022/01/21 09:12:28;;;;;;;2.73;0.60;;;7.80;89.60;;;;;;5051998;28;20195;-88
2022/01/21 09:14:53;;;;;;;2.70;0.97;;;8.00;99.90;;;;;;5053474;28;20420;-88
2022/01/21 09:17:19;;;;;;;1.97;0.20;;;7.60;99.90;;;;;;5048084;28;20421;-86
2022/01/21 09:19:44;;;;;;;3.30;0.77;;;7.80;99.90;;;;;;5051116;28;20295;-91
2022/01/21 09:22:10;;;;;;;3.03;0.30;;;8.20;99.90;;;;;;5061444;28;20183;-86
2022/01/21 09:24:36;;;;;;;3.60;0.63;;;8.90;99.90;;;;;;5053355;28;20171;-89
2022/01/21 09:27:04;;;;;;;3.77;1.03;;;9.00;99.90;;;;;;5053139;28;20205;-89
2022/01/21 09:29:30;;;;;;;5.80;0.40;;;9.00;99.90;;;;;;5035096;28;20923;-90
2022/01/21 09:31:56;;;;;;;2.93;0.60;;;9.10;99.90;;;;;;5052969;28;20494;-90
2022/01/21 09:34:24;;;;;;;1.80;0.43;;;9.20;99.90;;;;;;5035487;28;20419;-89
2022/01/21 09:36:50;;;;;;;2.33;0.40;;;9.30;99.90;;;;;;5052716;28;20435;-91
2022/01/21 09:39:19;;;;;;;5.60;0.87;;;9.70;99.90;;;;;;5052841;28;20410;-91
2022/01/21 09:41:45;;;;;;;7.70;0.53;;;9.50;99.90;;;;;;5035027;28;20423;-89
2022/01/21 09:44:30;;;;;;;1.03;0.43;;;9.80;99.90;;;;;;5052686;28;20421;-90
2022/01/21 09:46:59;;;;;;;2.63;0.70;;;9.80;99.90;;;;;;5037569;28;20425;-90
2022/01/21 09:49:27;;;;;;;2.23;0.80;;;10.10;99.90;;;;;;5034851;28;20423;-89
2022/01/21 09:52:07;;;;;;;6.03;0.90;;;9.90;99.90;;;;;;5052198;28;20471;-89
2022/01/21 09:54:34;;;;;;;2.80;0.60;;;9.90;99.90;;;;;;5052801;28;20946;-94
2022/01/21 09:57:01;;;;;;;1.83;0.40;;;8.80;99.90;;;;;;5035442;28;20935;-91
2022/01/21 09:59:35;;;;;;;2.20;0.67;;;9.10;99.90;;;;;;5035563;28;20510;-89
2022/01/21 10:02:04;;;;;;;2.83;0.80;;;9.20;99.90;;;;;;5053474;28;20426;-87
2022/01/21 10:04:32;;;;;;;2.30;0.80;;;9.20;99.90;;;;;;5036246;28;20889;-91
2022/01/21 10:07:00;;;;;;;1.00;0.27;;;9.70;99.90;;;;;;5054417;28;20422;-86
2022/01/21 10:09:26;;;;;;;7.00;1.37;;;9.80;99.90;;;;;;5039310;28;20429;-88
2022/01/21 10:11:54;;;;;;;4.30;1.23;;;10.10;99.90;;;;;;5039826;28;20875;-92
2022/01/21 10:14:22;;;;;;;3.80;1.13;;;10.50;99.90;;;;;;5057377;28;20418;-86
2022/01/21 10:16:48;;;;;;;4.57;1.10;;;11.90;99.90;;;;;;5057477;28;20417;-89
2022/01/21 10:19:22;;;;;;;4.10;1.20;;;11.10;99.90;;;;;;5039192;28;20549;-88
2022/01/21 10:21:57;;;;;;;5.23;0.70;;;10.40;99.90;;;;;;5055460;28;20918;-87
2022/01/21 10:24:23;;;;;;;1.50;0.50;;;11.10;99.90;;;;;;5054517;28;20451;-88
2022/01/21 10:26:52;;;;;;;2.37;0.73;;;10.80;99.90;;;;;;5038275;28;20474;-92
2022/01/21 10:29:18;;;;;;;4.20;0.83;;;10.40;99.90;;;;;;5057153;28;20169;-89
2022/01/21 10:31:57;;;;;;;1.53;0.43;;;8.90;99.90;;;;;;5058114;28;20468;-90
2022/01/21 10:34:34;;;;;;;3.00;0.50;;;8.50;99.90;;;;;;5056772;28;20191;-87
2022/01/21 10:37:09;;;;;;;3.60;0.83;;;8.40;99.90;;;;;;5056223;28;20872;-88
2022/01/21 10:40:15;;;;;;;3.10;0.50;;;8.60;99.90;;;;;;5053960;28;20782;-89
2022/01/21 10:42:41;;;;;;;2.70;1.37;;;8.90;99.90;;;;;;4978858;28;20425;-93
2022/01/21 10:45:08;;;;;;;4.37;1.17;;;9.10;99.90;;;;;;4995148;28;20429;-88
2022/01/21 10:47:48;;;;;;;5.10;1.07;;;9.40;99.90;;;;;;5009290;28;20335;-91
2022/01/21 10:50:16;;;;;;;3.50;0.30;;;9.80;99.90;;;;;;5036445;28;20418;-90
2022/01/21 10:52:52;;;;;;;2.37;0.63;;;10.10;99.90;;;;;;5036003;28;20424;-92
2022/01/21 10:55:36;;;;;;;5.00;0.70;;;10.70;99.90;;;;;;5036426;28;20761;-93
2022/01/21 10:58:15;;;;;;;4.10;1.13;;;10.50;99.90;;;;;;5035762;28;20428;-93
2022/01/21 11:01:03;;;;;;;9.43;1.67;;;10.80;99.90;;;;;;5018190;28;20423;-90
2022/01/21 11:03:30;;;;;;;3.00;0.73;;;10.60;99.90;;;;;;5034937;28;20413;-88
2022/01/21 11:06:14;;;;;;;2.27;0.70;;;10.60;99.90;;;;;;5035888;28;20432;-92
2022/01/21 11:08:40;;;;;;;6.40;0.77;;;10.00;99.90;;;;;;5040505;28;20481;-85
2022/01/21 11:11:05;;;;;;;4.33;0.97;;;9.60;99.90;;;;;;5044429;28;20552;-89
2022/01/21 11:13:33;;;;;;;4.70;0.97;;;10.30;99.90;;;;;;5043640;28;20249;-89
2022/01/21 11:16:12;;;;;;;2.50;0.87;;;11.10;99.90;;;;;;5024072;28;20200;-83
2022/01/21 11:19:05;;;;;;;1.27;0.30;;;11.90;99.90;;;;;;5042149;28;20499;-88
2022/01/21 11:21:53;;;;;;;6.87;0.63;;;12.40;99.90;;;;;;5025587;28;20561;-83
2022/01/21 11:24:21;;;;;;;3.30;0.60;;;11.50;99.90;;;;;;5041162;28;20511;-83
2022/01/21 11:27:08;;;;;;;1.83;0.73;;;11.50;99.90;;;;;;5039538;28;20424;-84
2022/01/21 11:29:34;;;;;;;3.50;0.63;;;11.60;99.90;;;;;;5036716;28;20423;-88
2022/01/21 11:32:01;;;;;;;2.00;0.60;;;11.50;99.90;;;;;;5020919;28;20884;-88
2022/01/21 11:34:26;;;;;;;4.87;1.00;;;10.20;99.90;;;;;;5038087;28;20439;-90
2022/01/21 11:36:53;;;;;;;4.77;0.67;;;9.60;99.90;;;;;;5021508;28;20415;-88
2022/01/21 11:39:21;;;;;;;4.27;1.10;;;9.70;99.90;;;;;;5039549;28;20173;-88
2022/01/21 11:41:49;;;;;;;3.60;0.90;;;11.20;99.90;;;;;;5038890;28;20477;-89
2022/01/21 11:44:20;;;;;;;4.87;0.80;;;11.50;99.90;;;;;;5042105;28;20448;-91
2022/01/21 11:47:01;;;;;;;3.17;1.10;;;11.10;99.90;;;;;;5024773;28;20422;-86
2022/01/21 11:49:28;;;;;;;4.70;0.57;;;10.20;99.90;;;;;;5042892;28;20424;-89
2022/01/21 11:52:15;;;;;;;3.17;1.07;;;9.30;99.90;;;;;;5023015;28;20480;-90
2022/01/21 11:54:43;;;;;;;7.10;1.07;;;9.10;99.90;;;;;;5022387;28;20419;-85
2022/01/21 11:57:11;;;;;;;5.70;1.50;;;8.90;99.90;;;;;;5021591;28;20426;-91
2022/01/21 11:59:58;;;;;;;3.23;1.10;;;8.60;99.90;;;;;;5044309;28;20479;-90
2022/01/21 12:02:26;;;;;;;4.60;0.80;;;8.30;99.90;;;;;;5055875;28;20481;-86
2022/01/21 12:05:02;;;;;;;5.10;1.17;;;7.90;99.90;;;;;;5054221;28;20419;-85
2022/01/21 12:07:40;;;;;;;5.63;1.00;;;7.80;99.90;;;;;;5053544;28;20389;-84
2022/01/21 12:10:14;;;;;;;5.30;0.90;;;7.70;99.90;;;;;;5035912;28;20921;-85
2022/01/21 12:12:52;;;;;;;10.60;1.23;;;7.50;99.90;;;;;;5036046;28;20428;-88
2022/01/21 12:15:32;;;;;;;5.87;1.23;;;7.50;99.90;;;;;;5037891;28;20825;-86
2022/01/21 12:18:40;;;;;;;8.23;1.30;;;7.30;99.90;;;;;;5058699;28;20609;-86
2022/01/21 12:21:26;;;;;;;5.57;1.07;;;7.30;99.90;;;;;;5025074;28;20794;-92
2022/01/21 12:23:52;;;;;;;5.20;0.80;;;7.20;99.90;;;;;;5017399;28;20903;-88
2022/01/21 12:26:26;;;;;;;7.53;1.80;;;7.30;99.90;;;;;;5035498;28;20409;-84
2022/01/21 12:28:57;;;;;;;3.23;0.80;;;7.20;99.90;;;;;;5034174;28;20416;-88
2022/01/21 12:31:42;;;;;;;7.10;1.10;;;7.10;1.00;;;;;;5015865;28;20468;-91
2022/01/21 12:34:12;;;;;;;6.33;0.60;;;7.00;1.00;;;;;;5034287;28;20403;-86
2022/01/21 12:36:46;;;;;;;11.47;1.37;;;6.80;1.00;;;;;;5015958;28;20805;-85
2022/01/21 12:39:43;;;;;;;3.60;1.30;;;6.70;2.60;;;;;;5034634;28;20412;-85
2022/01/21 12:42:21;;;;;;;6.80;1.40;;;6.70;99.90;;;;;;5034053;28;20829;-89
2022/01/21 12:44:48;;;;;;;5.60;0.90;;;6.90;99.90;;;;;;5033882;28;20415;-91
2022/01/21 12:47:38;;;;;;;5.17;0.97;;;7.10;79.60;;;;;;5015721;28;20924;-85
2022/01/21 12:50:15;;;;;;;10.50;1.50;;;6.90;99.90;;;;;;5033540;28;20466;-89
2022/01/21 12:52:47;;;;;;;4.67;2.00;;;6.90;1.00;;;;;;5033303;28;20423;-88
2022/01/21 12:58:06;;;;;;;4.23;0.47;;;7.00;1.00;;;;;;5033672;28;20462;-85
2022/01/21 13:00:31;;;;;;;5.50;0.97;;;6.90;1.00;;;;;;5033340;28;20899;-89
2022/01/21 13:03:11;;;;;;;7.40;1.67;;;6.90;1.00;;;;;;5015713;28;20220;-89
2022/01/21 13:05:50;;;;;;;5.00;0.93;;;6.80;59.30;;;;;;5032929;28;20176;-86
2022/01/21 13:08:37;;;;;;;10.33;1.97;;;6.60;1.00;;;;;;5032747;28;20411;-85
2022/01/21 13:11:19;;;;;;;5.40;1.20;;;6.40;1.00;;;;;;5015591;28;20517;-87
2022/01/21 13:13:59;;;;;;;5.10;1.27;;;6.30;99.90;;;;;;5033500;28;20764;-84
2022/01/21 13:16:29;;;;;;;4.90;1.17;;;6.40;99.90;;;;;;5035869;28;20473;-85
2022/01/21 13:19:05;;;;;;;11.77;1.60;;;6.30;99.90;;;;;;5041131;28;20480;-90
2022/01/21 13:21:33;;;;;;;6.10;1.13;;;6.20;1.00;;;;;;5053339;28;20539;-91
2022/01/21 13:24:02;;;;;;;6.73;1.00;;;6.20;99.90;;;;;;5053921;28;20500;-86
2022/01/21 13:26:36;;;;;;;13.17;1.60;;;6.00;99.90;;;;;;5043152;28;20444;-86
2022/01/21 13:29:07;;;;;;;5.00;1.13;;;6.00;99.90;;;;;;5026929;28;20442;-86
2022/01/21 13:31:54;;;;;;;6.70;1.13;;;6.00;99.90;;;;;;5021952;28;20512;-89
2022/01/21 13:34:24;;;;;;;6.00;1.43;;;6.10;99.90;;;;;;5032896;28;20993;-88
2022/01/21 13:36:53;;;;;;;5.10;0.67;;;6.00;99.90;;;;;;5015107;28;20429;-86
2022/01/21 13:39:31;;;;;;;4.03;0.77;;;5.90;1.00;;;;;;5032617;28;20410;-85
2022/01/21 13:42:03;;;;;;;4.73;1.60;;;5.70;1.00;;;;;;5033788;28;20418;-83
2022/01/21 13:44:36;;;;;;;2.53;0.43;;;5.60;1.00;;;;;;5036650;28;20430;-85
2022/01/21 13:47:05;;;;;;;9.90;2.47;;;5.50;1.00;;;;;;5036740;28;20953;-86
2022/01/21 13:49:37;;;;;;;4.47;0.53;;;5.50;1.00;;;;;;5019143;28;20456;-87
2022/01/21 13:52:06;;;;;;;11.53;1.90;;;5.50;1.00;;;;;;5036473;28;20875;-87